Time;durP1;ratioP1;P1;durP2;ratioP2;P2;SDS_P1;SDS_P2;PMS_P1;PMS_P2;Temp;Humidity;BMP_temperature;BMP_pressure;BME280_temperature;BME280_humidity;BME280_pressure;Samples;Min_cycle;Max_cycle;Signal;HPM_P1;HPM_P2
2020/12/20 00:02:13;;;;;;;11.98;5.90;;;;;;;7.97;90.20;101330.41;5112334;28;20104;-56
2020/12/20 00:04:40;;;;;;;14.07;6.80;;;;;;;7.95;90.19;101331.50;5112072;28;20044;-56
2020/12/20 00:07:20;;;;;;;15.15;6.95;;;;;;;7.93;90.26;101333.72;5112155;28;20079;-58
2020/12/20 00:09:47;;;;;;;13.07;6.38;;;;;;;7.91;90.47;101335.91;5112276;28;20076;-56
2020/12/20 00:12:14;;;;;;;13.93;6.47;;;;;;;7.91;90.57;101335.09;5111190;28;20091;-56
2020/12/20 00:14:40;;;;;;;17.45;6.55;;;;;;;7.92;90.56;101326.47;5112505;28;20039;-56
2020/12/20 00:17:09;;;;;;;14.65;5.72;;;;;;;7.97;90.79;101333.19;5112152;28;20130;-57
2020/12/20 00:19:38;;;;;;;16.65;6.35;;;;;;;7.99;90.83;101331.81;5111353;28;20032;-56
2020/12/20 00:22:06;;;;;;;18.25;6.18;;;;;;;8.02;90.64;101333.19;5111365;28;20047;-56
2020/12/20 00:24:34;;;;;;;10.95;5.18;;;;;;;8.04;90.46;101326.25;5111338;27;20446;-56
2020/12/20 00:27:02;;;;;;;14.68;6.22;;;;;;;8.07;90.43;101327.66;5111816;28;20114;-56
2020/12/20 00:29:29;;;;;;;14.73;5.25;;;;;;;8.05;90.36;101332.63;5111495;28;20042;-55
2020/12/20 00:31:56;;;;;;;14.07;5.65;;;;;;;8.08;90.53;101329.31;5112110;28;20055;-55
2020/12/20 00:34:23;;;;;;;13.70;5.93;;;;;;;8.10;90.54;101329.91;5111074;28;20062;-60
2020/12/20 00:36:51;;;;;;;18.67;6.80;;;;;;;8.08;90.13;101334.88;5111665;28;20071;-53
2020/12/20 00:39:21;;;;;;;13.35;5.72;;;;;;;8.05;90.06;101335.41;5110779;28;20054;-56
2020/12/20 00:41:52;;;;;;;13.95;6.03;;;;;;;8.01;90.12;101337.91;5111748;28;20159;-59
2020/12/20 00:44:20;;;;;;;12.55;5.60;;;;;;;7.97;90.52;101333.19;5111436;28;20121;-52
2020/12/20 00:46:47;;;;;;;18.10;6.43;;;;;;;7.94;90.55;101340.94;5111205;28;20458;-56
2020/12/20 00:49:22;;;;;;;13.55;5.20;;;;;;;7.94;90.67;101327.06;5111238;28;20043;-54
2020/12/20 00:51:52;;;;;;;13.23;6.45;;;;;;;7.97;90.53;101322.91;5111373;27;20071;-54
2020/12/20 00:54:18;;;;;;;16.77;5.70;;;;;;;7.99;90.58;101322.63;5103414;28;20419;-57
2020/12/20 00:56:46;;;;;;;19.05;6.10;;;;;;;7.99;90.49;101330.97;5098364;28;20472;-56
2020/12/20 00:59:14;;;;;;;15.75;5.97;;;;;;;7.97;90.72;101328.47;5090251;28;20135;-56
2020/12/20 01:01:41;;;;;;;15.57;5.97;;;;;;;7.99;90.73;101336.53;5110956;28;20052;-53
2020/12/20 01:04:09;;;;;;;16.08;6.10;;;;;;;8.00;90.67;101338.16;5107645;28;20131;-52
2020/12/20 01:06:36;;;;;;;14.23;5.65;;;;;;;8.00;90.43;101338.16;5111344;28;20039;-54
2020/12/20 01:09:18;;;;;;;14.73;6.13;;;;;;;7.99;90.52;101344.88;5108250;28;20044;-54
2020/12/20 01:11:46;;;;;;;11.73;5.45;;;;;;;7.97;90.49;101336.78;5090829;28;20086;-57
2020/12/20 01:14:13;;;;;;;11.00;4.97;;;;;;;7.95;90.31;101341.78;5091589;28;20058;-55
2020/12/20 01:16:49;;;;;;;12.55;5.32;;;;;;;7.93;90.27;101338.44;5092227;28;20093;-56
2020/12/20 01:19:15;;;;;;;15.98;6.00;;;;;;;7.92;90.49;101343.16;5090377;28;20059;-57
2020/12/20 01:21:42;;;;;;;11.88;4.78;;;;;;;7.92;90.37;101345.09;5090000;28;20140;-56
2020/12/20 01:24:09;;;;;;;16.65;5.18;;;;;;;7.92;90.40;101347.88;5089597;28;20363;-56
2020/12/20 01:26:37;;;;;;;11.50;5.43;;;;;;;7.94;90.58;101340.94;5091009;28;20048;-54
2020/12/20 01:29:04;;;;;;;14.88;5.35;;;;;;;7.94;90.36;101337.31;5110516;28;20047;-58
2020/12/20 01:31:30;;;;;;;17.42;6.22;;;;;;;7.95;90.47;101337.06;5110670;28;20071;-53
2020/12/20 01:34:10;;;;;;;13.50;5.32;;;;;;;7.94;90.80;101340.94;5118321;27;20050;-55
2020/12/20 01:36:38;;;;;;;11.68;5.30;;;;;;;7.94;90.47;101342.88;5099082;28;20130;-57
2020/12/20 01:39:05;;;;;;;14.38;5.85;;;;;;;7.94;90.50;101338.16;5096159;28;20073;-59
2020/12/20 01:41:32;;;;;;;14.23;4.70;;;;;;;7.93;90.78;101338.44;5095888;28;20052;-52
2020/12/20 01:44:01;;;;;;;20.38;6.10;;;;;;;7.91;90.48;101341.47;5095920;28;20055;-55
2020/12/20 01:46:40;;;;;;;15.85;5.82;;;;;;;7.89;90.94;101343.69;5096008;28;20467;-58
2020/12/20 01:49:07;;;;;;;14.80;5.22;;;;;;;7.90;90.98;101344.53;5114767;28;20096;-58
2020/12/20 01:51:33;;;;;;;15.55;5.07;;;;;;;7.94;90.72;101348.44;5116801;27;20647;-54
2020/12/20 01:54:06;;;;;;;12.07;5.10;;;;;;;7.95;90.85;101350.13;5100789;28;20102;-55
2020/12/20 01:56:34;;;;;;;14.20;5.85;;;;;;;7.96;90.62;101343.44;5095439;28;20058;-54
2020/12/20 01:59:06;;;;;;;17.90;5.93;;;;;;;7.95;90.76;101348.19;5096178;28;20097;-58
2020/12/20 02:01:41;;;;;;;16.75;5.95;;;;;;;7.94;90.43;101346.50;5095937;28;20421;-54
2020/12/20 02:04:26;;;;;;;12.50;6.43;;;;;;;7.89;90.39;101353.97;5112704;28;20055;-54
2020/12/20 02:06:53;;;;;;;12.35;6.20;;;;;;;7.86;90.69;101344.22;5117235;27;20048;-58
2020/12/20 02:09:24;;;;;;;12.15;5.90;;;;;;;7.81;90.73;101349.75;5102590;28;20056;-54
2020/12/20 02:11:52;;;;;;;10.35;5.45;;;;;;;7.78;90.89;101353.09;5097770;28;20051;-54
2020/12/20 02:14:22;;;;;;;14.25;6.25;;;;;;;7.78;90.90;101344.75;5117622;27;20047;-56
2020/12/20 02:16:55;;;;;;;19.05;7.40;;;;;;;7.76;90.54;101335.00;5109954;28;20078;-55
2020/12/20 02:19:24;;;;;;;14.38;6.32;;;;;;;7.72;90.85;101356.94;5105064;28;20043;-56
2020/12/20 02:22:08;;;;;;;14.13;6.30;;;;;;;7.70;91.16;101347.19;5097463;28;20092;-52
2020/12/20 02:24:37;;;;;;;15.70;6.90;;;;;;;7.66;91.35;101355.22;5104374;28;20478;-59
2020/12/20 02:27:12;;;;;;;15.45;5.55;;;;;;;7.67;91.70;101356.88;5096581;28;20040;-57
2020/12/20 02:29:48;;;;;;;15.43;6.55;;;;;;;7.71;91.33;101358.03;5104807;28;20105;-57
2020/12/20 02:32:15;;;;;;;14.40;6.70;;;;;;;7.70;91.53;101361.06;5101873;28;20159;-53
2020/12/20 02:34:42;;;;;;;16.00;6.85;;;;;;;7.74;91.52;101357.50;5106969;28;20075;-56
2020/12/20 02:37:10;;;;;;;19.23;7.40;;;;;;;7.74;91.35;101351.09;5100462;28;20039;-51
2020/12/20 02:39:51;;;;;;;16.75;6.93;;;;;;;7.73;91.41;101360.53;5104153;28;20066;-58
2020/12/20 02:42:18;;;;;;;19.10;6.93;;;;;;;7.72;91.71;101354.16;5117044;27;20046;-52
2020/12/20 02:44:46;;;;;;;16.38;6.60;;;;;;;7.70;91.50;101339.69;5114229;27;20123;-55
2020/12/20 02:47:15;;;;;;;21.55;6.70;;;;;;;7.74;91.95;101346.38;5095265;28;20135;-57
2020/12/20 02:49:41;;;;;;;18.75;6.07;;;;;;;7.79;91.63;101346.44;5092525;28;20048;-53
2020/12/20 02:52:21;;;;;;;22.20;5.80;;;;;;;7.87;91.72;101334.78;5093063;28;20051;-58
2020/12/20 02:54:48;;;;;;;16.95;5.57;;;;;;;7.98;91.83;101346.81;5092226;28;20131;-54
2020/12/20 02:57:24;;;;;;;17.15;5.18;;;;;;;8.11;91.84;101339.91;5092511;28;20048;-57
2020/12/20 02:59:59;;;;;;;18.38;4.72;;;;;;;8.20;91.33;101355.78;5112395;28;20032;-55
2020/12/20 03:02:26;;;;;;;18.85;4.35;;;;;;;8.31;91.17;101351.09;5112519;28;20048;-52
2020/12/20 03:04:53;;;;;;;19.10;5.18;;;;;;;8.39;90.98;101358.97;5094349;28;20585;-58
2020/12/20 03:07:24;;;;;;;22.52;5.28;;;;;;;8.45;90.70;101345.91;5112112;28;20044;-56
2020/12/20 03:09:52;;;;;;;17.40;4.88;;;;;;;8.52;90.58;101357.63;5094225;28;20135;-55
2020/12/20 03:12:21;;;;;;;17.92;4.75;;;;;;;8.54;90.13;101358.19;5112369;28;20038;-50
2020/12/20 03:14:49;;;;;;;18.48;4.78;;;;;;;8.58;89.88;101364.88;5095348;28;20059;-51
2020/12/20 03:17:16;;;;;;;18.05;5.05;;;;;;;8.60;90.00;101354.28;5091539;28;20124;-55
2020/12/20 03:19:44;;;;;;;19.75;4.72;;;;;;;8.62;89.90;101352.06;5091326;28;20102;-52
2020/12/20 03:22:14;;;;;;;16.02;4.40;;;;;;;8.64;89.88;101355.41;5091321;28;20040;-55
2020/12/20 03:24:58;;;;;;;16.48;5.13;;;;;;;8.67;89.60;101365.16;5091179;28;20055;-55
2020/12/20 03:27:45;;;;;;;17.65;4.78;;;;;;;8.65;89.78;101359.88;5091595;28;20442;-53
2020/12/20 03:30:26;;;;;;;22.70;4.90;;;;;;;8.66;89.80;101358.75;5091325;28;20388;-58
2020/12/20 03:33:14;;;;;;;18.67;4.05;;;;;;;8.67;89.56;101354.88;5070732;28;20131;-51
2020/12/20 03:35:59;;;;;;;19.02;4.25;;;;;;;8.68;89.56;101361.25;5111887;28;20670;-55
2020/12/20 03:38:26;;;;;;;19.30;4.82;;;;;;;8.74;89.33;101365.75;5111794;28;20063;-50
2020/12/20 03:40:53;;;;;;;16.80;4.35;;;;;;;8.73;89.35;101359.34;5093910;28;20551;-53
2020/12/20 03:43:21;;;;;;;17.50;4.22;;;;;;;8.76;89.13;101364.38;5111300;28;20058;-53
2020/12/20 03:45:56;;;;;;;19.85;4.20;;;;;;;8.75;89.33;101357.13;5112118;28;20057;-59
2020/12/20 03:48:35;;;;;;;19.88;4.28;;;;;;;8.75;89.04;101361.84;5091037;28;20156;-58
2020/12/20 03:51:14;;;;;;;17.65;4.57;;;;;;;8.74;89.32;101360.19;5125130;27;20048;-58
2020/12/20 03:53:46;;;;;;;22.05;4.53;;;;;;;8.73;89.20;101367.69;5111539;28;20486;-55
2020/12/20 03:56:16;;;;;;;26.80;4.82;;;;;;;8.73;89.11;101370.47;5092891;28;20506;-56
2020/12/20 03:58:49;;;;;;;24.27;4.82;;;;;;;8.72;89.24;101370.75;5111470;28;20410;-58
2020/12/20 04:01:17;;;;;;;22.55;4.28;;;;;;;8.72;89.25;101363.22;5103937;28;20050;-57
2020/12/20 04:03:45;;;;;;;26.63;5.07;;;;;;;8.70;89.17;101367.41;5111606;28;20043;-56
2020/12/20 04:06:12;;;;;;;21.08;4.38;;;;;;;8.69;89.11;101368.50;5112814;28;20046;-54
2020/12/20 04:08:40;;;;;;;22.77;4.60;;;;;;;8.68;89.29;101376.00;5095766;28;20044;-55
2020/12/20 04:11:24;;;;;;;19.92;4.18;;;;;;;8.66;89.30;101377.41;5090857;28;20487;-56
2020/12/20 04:13:52;;;;;;;21.77;4.28;;;;;;;8.68;89.43;101377.97;5091435;28;20044;-53
2020/12/20 04:16:19;;;;;;;19.33;4.05;;;;;;;8.68;89.25;101389.09;5091552;28;20096;-57
2020/12/20 04:18:46;;;;;;;17.92;4.47;;;;;;;8.68;89.20;101378.78;5090989;28;20090;-51
2020/12/20 04:21:31;;;;;;;20.58;3.97;;;;;;;8.67;89.21;101379.06;5091475;28;20048;-56
2020/12/20 04:23:59;;;;;;;21.67;4.35;;;;;;;8.69;89.24;101368.50;5091215;28;20131;-55
2020/12/20 04:26:28;;;;;;;19.55;4.10;;;;;;;8.70;89.19;101367.41;5090793;28;20412;-56
2020/12/20 04:29:22;;;;;;;15.65;3.75;;;;;;;8.70;89.24;101367.41;5106911;28;20055;-54
2020/12/20 04:31:56;;;;;;;20.35;4.07;;;;;;;8.72;89.03;101356.84;5098420;28;20084;-55
2020/12/20 04:34:23;;;;;;;16.73;3.92;;;;;;;8.72;89.12;101366.00;5107768;28;20046;-54
2020/12/20 04:36:51;;;;;;;16.67;4.38;;;;;;;8.69;89.17;101363.78;5101186;28;20048;-52
2020/12/20 04:39:32;;;;;;;14.27;3.63;;;;;;;8.67;88.99;101349.31;5090953;28;20066;-57
2020/12/20 04:42:01;;;;;;;25.25;4.50;;;;;;;8.67;89.15;101368.78;5090926;28;20048;-57
2020/12/20 04:44:30;;;;;;;22.55;4.50;;;;;;;8.67;89.12;101376.28;5091135;28;20067;-53
2020/12/20 04:47:03;;;;;;;20.73;3.72;;;;;;;8.66;89.08;101363.47;5101067;28;20490;-54
2020/12/20 04:49:44;;;;;;;16.85;3.90;;;;;;;8.64;89.04;101375.72;5097945;28;20055;-58
2020/12/20 04:52:18;;;;;;;16.48;3.40;;;;;;;8.63;89.15;101376.81;5101189;28;20077;-55
2020/12/20 04:54:48;;;;;;;17.85;4.30;;;;;;;8.63;89.08;101376.00;5098326;28;20468;-55
2020/12/20 04:57:35;;;;;;;18.77;3.90;;;;;;;8.59;89.19;101372.09;5101772;28;20055;-55
2020/12/20 05:00:06;;;;;;;16.42;3.60;;;;;;;8.57;89.36;101383.50;5097092;28;20062;-55
2020/12/20 05:02:33;;;;;;;17.00;3.83;;;;;;;8.59;89.37;101372.09;5097775;28;20047;-54
2020/12/20 05:05:01;;;;;;;18.80;4.15;;;;;;;8.56;89.45;101370.72;5090773;28;20148;-54
2020/12/20 05:07:28;;;;;;;18.92;4.40;;;;;;;8.57;89.25;101374.31;5090824;28;20040;-58
2020/12/20 05:09:55;;;;;;;17.40;4.00;;;;;;;8.58;89.28;101378.78;5090360;28;20132;-56
2020/12/20 05:12:36;;;;;;;18.67;3.53;;;;;;;8.57;89.47;101377.94;5096477;28;20509;-50
2020/12/20 05:15:24;;;;;;;22.52;4.72;;;;;;;8.60;89.19;101379.31;5111738;28;20055;-56
2020/12/20 05:18:26;;;;;;;24.80;4.18;;;;;;;8.53;89.19;101385.16;5095203;28;20073;-57
2020/12/20 05:21:08;;;;;;;16.52;3.67;;;;;;;8.53;89.15;101381.53;5094250;28;20044;-52
2020/12/20 05:23:36;;;;;;;19.05;4.05;;;;;;;8.53;89.41;101384.31;5090097;28;20054;-56
2020/12/20 05:26:27;;;;;;;16.40;3.83;;;;;;;8.54;89.39;101388.78;5109564;28;20058;-56
2020/12/20 05:29:08;;;;;;;20.30;3.80;;;;;;;8.56;89.23;101387.41;5097245;28;20046;-59
2020/12/20 05:31:35;;;;;;;20.88;4.05;;;;;;;8.53;89.44;101393.50;5090201;28;20503;-55
2020/12/20 05:34:13;;;;;;;22.42;3.95;;;;;;;8.55;89.37;101396.84;5097881;28;20087;-59
2020/12/20 05:36:43;;;;;;;21.95;4.38;;;;;;;8.55;89.21;101399.63;5110219;28;20051;-49
2020/12/20 05:39:28;;;;;;;20.35;3.88;;;;;;;8.55;89.41;101401.56;5097576;28;20056;-53
2020/12/20 05:42:06;;;;;;;15.32;3.25;;;;;;;8.55;89.31;101398.78;5090030;28;20413;-54
2020/12/20 05:44:37;;;;;;;21.40;4.50;;;;;;;8.56;89.24;101394.91;5104219;28;20413;-52
2020/12/20 05:47:10;;;;;;;18.77;3.70;;;;;;;8.56;89.34;101386.56;5110654;28;20055;-57
2020/12/20 05:49:42;;;;;;;21.17;4.00;;;;;;;8.55;89.10;101399.63;5097570;28;20052;-51
2020/12/20 05:52:27;;;;;;;19.00;3.20;;;;;;;8.54;89.08;101397.97;5090454;28;20044;-52
2020/12/20 05:54:53;;;;;;;17.83;3.05;;;;;;;8.51;89.01;101401.28;5091168;28;20074;-56
2020/12/20 05:57:22;;;;;;;16.00;3.42;;;;;;;8.52;88.98;101397.38;5090915;28;20036;-56
2020/12/20 05:59:52;;;;;;;15.82;3.47;;;;;;;8.49;88.89;101397.94;5091138;28;20044;-56
2020/12/20 06:02:20;;;;;;;17.52;3.90;;;;;;;8.44;88.95;101403.47;5091565;28;20105;-52
2020/12/20 06:04:48;;;;;;;17.67;3.25;;;;;;;8.43;88.90;101401.78;5090777;28;20040;-55
2020/12/20 06:07:15;;;;;;;19.63;3.78;;;;;;;8.43;89.05;101401.78;5091270;28;20066;-56
2020/12/20 06:09:51;;;;;;;13.50;3.10;;;;;;;8.43;88.64;101401.78;5090564;28;20097;-57
2020/12/20 06:12:21;;;;;;;17.10;3.30;;;;;;;8.41;88.77;101398.44;5089974;28;20044;-59
2020/12/20 06:14:50;;;;;;;17.42;3.85;;;;;;;8.35;88.65;101387.59;5091199;28;20052;-54
2020/12/20 06:17:18;;;;;;;18.08;4.38;;;;;;;8.25;88.71;101396.66;5090792;28;20044;-57
2020/12/20 06:19:58;;;;;;;14.23;4.13;;;;;;;8.18;89.02;101390.53;5092786;28;20131;-52
2020/12/20 06:22:28;;;;;;;19.40;4.80;;;;;;;8.12;89.05;101398.00;5095185;28;20040;-56
2020/12/20 06:24:57;;;;;;;15.43;3.72;;;;;;;8.12;89.00;101395.22;5094121;28;20115;-58
2020/12/20 06:27:25;;;;;;;17.17;4.30;;;;;;;8.10;88.97;101389.09;5094697;28;20509;-58
2020/12/20 06:29:54;;;;;;;19.67;5.03;;;;;;;8.06;88.91;101392.69;5094523;28;20052;-57
2020/12/20 06:32:38;;;;;;;16.98;4.22;;;;;;;8.05;88.82;101396.56;5093973;28;20139;-55
2020/12/20 06:35:12;;;;;;;19.63;5.03;;;;;;;7.98;89.07;101405.16;5092271;28;20114;-54
2020/12/20 06:37:41;;;;;;;16.65;4.35;;;;;;;7.97;89.03;101417.38;5094954;28;20036;-56
2020/12/20 06:40:08;;;;;;;21.33;5.05;;;;;;;7.93;89.06;101411.53;5094104;28;20048;-54
2020/12/20 06:42:37;;;;;;;18.98;5.68;;;;;;;7.91;89.09;101413.72;5094377;28;20068;-54
2020/12/20 06:45:15;;;;;;;18.00;5.13;;;;;;;7.90;88.97;101411.22;5094204;28;20076;-58
2020/12/20 06:47:44;;;;;;;17.02;4.93;;;;;;;7.84;89.13;101407.56;5094431;28;20044;-52
2020/12/20 06:50:11;;;;;;;15.63;4.90;;;;;;;7.82;89.17;101406.97;5094848;28;20083;-57
2020/12/20 06:52:46;;;;;;;15.88;5.43;;;;;;;7.77;89.24;101415.31;5114093;28;20097;-55
2020/12/20 06:55:14;;;;;;;15.45;4.80;;;;;;;7.73;89.32;101413.31;5114867;28;20051;-59
2020/12/20 06:58:09;;;;;;;15.85;5.22;;;;;;;7.71;89.21;101424.69;5114135;28;20479;-57
2020/12/20 07:00:41;;;;;;;17.63;5.00;;;;;;;7.65;89.61;101425.75;5112082;27;20131;-56
2020/12/20 07:03:08;;;;;;;15.80;5.43;;;;;;;7.61;89.37;101427.38;5112665;28;20054;-52
2020/12/20 07:05:38;;;;;;;16.05;4.72;;;;;;;7.55;89.64;101418.19;5113865;28;20039;-54
2020/12/20 07:08:10;;;;;;;18.92;5.60;;;;;;;7.53;89.79;101422.34;5092997;28;20142;-57
2020/12/20 07:10:45;;;;;;;16.77;5.57;;;;;;;7.50;89.94;101422.84;5093392;28;20074;-57
2020/12/20 07:13:14;;;;;;;15.90;5.75;;;;;;;7.47;90.00;101434.50;5092763;28;20060;-53
2020/12/20 07:15:46;;;;;;;21.65;5.63;;;;;;;7.44;89.83;101432.25;5092222;28;20388;-58
2020/12/20 07:18:46;;;;;;;;;;;;;;;7.32;90.02;101434.38;5111248;28;20052;-55
2020/12/20 07:21:45;;;;;;;14.85;5.60;;;;;;;7.29;90.41;101440.44;5090062;28;20030;-59
2020/12/20 07:24:17;;;;;;;14.48;5.03;;;;;;;7.28;90.34;101441.53;5070646;28;20076;-56
2020/12/20 07:26:46;;;;;;;15.27;5.30;;;;;;;7.28;90.30;101447.94;5086077;28;20044;-55
2020/12/20 07:29:13;;;;;;;19.67;5.18;;;;;;;7.28;90.65;101450.69;5092250;28;20143;-58
2020/12/20 07:31:44;;;;;;;15.88;5.63;;;;;;;7.27;90.43;101446.25;5092329;28;20044;-56
2020/12/20 07:34:12;;;;;;;14.40;5.20;;;;;;;7.24;90.38;101447.59;5091836;28;20055;-57
2020/12/20 07:36:38;;;;;;;15.85;5.43;;;;;;;7.24;90.51;101453.16;5091844;28;20409;-57
2020/12/20 07:39:06;;;;;;;18.02;6.68;;;;;;;7.24;90.52;101452.31;5092373;28;20055;-55
2020/12/20 07:41:33;;;;;;;19.70;5.85;;;;;;;7.23;90.30;101457.03;5091862;28;20059;-58
2020/12/20 07:44:04;;;;;;;18.73;6.35;;;;;;;7.23;90.82;101457.03;5092140;28;20056;-56
2020/12/20 07:46:32;;;;;;;16.20;5.75;;;;;;;7.21;90.59;101464.78;5092767;28;20520;-54
2020/12/20 07:49:07;;;;;;;20.25;5.95;;;;;;;7.22;91.32;101473.94;5107707;28;20050;-54
2020/12/20 07:51:35;;;;;;;18.65;5.68;;;;;;;7.23;91.32;101470.06;5112862;28;20126;-56
2020/12/20 07:54:07;;;;;;;20.98;6.30;;;;;;;7.25;91.02;101479.81;5097333;28;20391;-52
2020/12/20 07:56:35;;;;;;;18.27;5.22;;;;;;;7.28;91.24;101480.41;5090096;28;20060;-56
2020/12/20 07:59:04;;;;;;;17.88;6.03;;;;;;;7.32;91.08;101484.34;5091936;28;20448;-53
2020/12/20 08:01:31;;;;;;;19.48;6.25;;;;;;;7.34;91.06;101482.97;5092432;28;20410;-54
2020/12/20 08:04:07;;;;;;;17.05;5.50;;;;;;;7.38;91.31;101477.75;5091611;28;20075;-53
2020/12/20 08:06:35;;;;;;;15.75;5.63;;;;;;;7.38;91.30;101486.06;5091817;28;20140;-66
2020/12/20 08:09:07;;;;;;;20.80;6.03;;;;;;;7.40;91.66;101481.91;5091669;28;20093;-58
2020/12/20 08:11:35;;;;;;;19.00;6.80;;;;;;;7.43;91.23;101488.88;5091573;28;20097;-57
2020/12/20 08:14:04;;;;;;;19.48;6.68;;;;;;;7.45;91.51;101492.22;5100699;28;20047;-61
2020/12/20 08:16:32;;;;;;;22.40;5.53;;;;;;;7.47;91.44;101487.25;5111752;28;20066;-61
2020/12/20 08:19:02;;;;;;;20.08;5.43;;;;;;;7.49;91.58;101485.88;5111846;28;20043;-58
2020/12/20 08:21:49;;;;;;;18.77;5.63;;;;;;;7.49;91.81;101496.16;5111952;28;20048;-60
2020/12/20 08:24:16;;;;;;;22.90;5.25;;;;;;;7.53;91.79;101500.94;5110928;28;20486;-60
2020/12/20 08:26:44;;;;;;;17.58;4.85;;;;;;;7.60;91.68;101495.97;5099114;28;20461;-59
2020/12/20 08:29:15;;;;;;;18.40;5.57;;;;;;;7.66;91.46;101507.13;5097446;28;20514;-59
2020/12/20 08:31:45;;;;;;;17.05;4.78;;;;;;;7.68;91.82;101508.56;5111485;28;20105;-59
2020/12/20 08:34:20;;;;;;;22.25;5.18;;;;;;;7.79;91.83;101509.50;5111284;28;20052;-59
2020/12/20 08:36:49;;;;;;;20.95;5.45;;;;;;;7.84;91.78;101515.91;5111864;28;20399;-59
2020/12/20 08:39:17;;;;;;;17.92;4.97;;;;;;;7.91;91.81;101510.97;5110955;28;20134;-55
2020/12/20 08:41:43;;;;;;;17.13;4.40;;;;;;;7.99;91.83;101500.50;5091229;28;20074;-60
2020/12/20 08:44:13;;;;;;;17.98;4.03;;;;;;;8.07;91.71;101499.97;5092877;28;20458;-59
2020/12/20 08:46:43;;;;;;;16.38;4.53;;;;;;;8.12;91.72;101503.63;5110882;28;20046;-57
2020/12/20 08:49:19;;;;;;;23.33;4.95;;;;;;;8.17;91.57;101505.63;5111471;28;20489;-59
2020/12/20 08:51:49;;;;;;;19.45;4.40;;;;;;;8.22;91.27;101506.47;5110760;28;20500;-59
2020/12/20 08:54:27;;;;;;;18.52;4.60;;;;;;;8.23;91.25;101505.38;5111520;28;20172;-57
2020/12/20 08:56:58;;;;;;;22.50;5.03;;;;;;;8.21;91.37;101503.97;5111089;28;20043;-58
2020/12/20 08:59:34;;;;;;;23.98;4.60;;;;;;;8.25;91.12;101507.88;5111035;28;20120;-60
2020/12/20 09:02:02;;;;;;;19.48;5.00;;;;;;;8.28;91.23;101501.78;5110201;28;20040;-59
2020/12/20 09:04:30;;;;;;;20.65;4.15;;;;;;;8.27;90.92;101502.91;5111625;28;20057;-56
2020/12/20 09:06:59;;;;;;;23.45;4.65;;;;;;;8.31;90.95;101495.69;5090939;28;20051;-57
2020/12/20 09:09:26;;;;;;;23.33;4.75;;;;;;;8.35;90.73;101498.81;5090906;28;20601;-59
2020/12/20 09:11:54;;;;;;;19.02;3.72;;;;;;;8.37;90.73;101494.66;5090659;28;20091;-60
2020/12/20 09:14:20;;;;;;;20.60;4.32;;;;;;;8.39;90.56;101508.31;5090504;28;20048;-59
2020/12/20 09:16:47;;;;;;;26.48;4.43;;;;;;;8.42;90.49;101521.66;5090809;28;20457;-61
2020/12/20 09:19:15;;;;;;;17.02;3.97;;;;;;;8.48;90.60;101523.34;5090726;28;20052;-58
2020/12/20 09:21:49;;;;;;;20.30;4.47;;;;;;;8.50;90.12;101532.28;5090112;28;20044;-57
2020/12/20 09:24:16;;;;;;;21.02;3.50;;;;;;;8.52;90.09;101538.41;5090013;28;20044;-56
2020/12/20 09:26:55;;;;;;;24.25;4.13;;;;;;;8.50;90.20;101538.69;5090066;28;20472;-60
2020/12/20 09:29:21;;;;;;;23.00;4.55;;;;;;;8.54;89.96;101537.03;5090841;28;20048;-57
2020/12/20 09:31:49;;;;;;;26.73;4.45;;;;;;;8.58;90.01;101540.97;5090498;28;20552;-58
2020/12/20 09:34:15;;;;;;;19.27;4.13;;;;;;;8.61;89.94;101540.41;5089983;28;20074;-58
2020/12/20 09:36:42;;;;;;;24.05;4.55;;;;;;;8.63;89.82;101549.31;5090381;28;20052;-57
2020/12/20 09:39:11;;;;;;;24.90;4.25;;;;;;;8.64;89.73;101545.44;5090931;28;20495;-59
2020/12/20 09:41:39;;;;;;;23.00;4.47;;;;;;;8.67;89.67;101548.78;5090103;28;20115;-57
2020/12/20 09:44:06;;;;;;;30.02;5.13;;;;;;;8.69;89.61;101549.34;5090799;28;20047;-55
2020/12/20 09:46:35;;;;;;;21.35;4.68;;;;;;;8.73;89.49;101553.28;5102684;28;20054;-55
2020/12/20 09:49:03;;;;;;;24.80;4.45;;;;;;;8.74;89.30;101552.16;5110181;28;20134;-60
2020/12/20 09:51:32;;;;;;;22.33;4.88;;;;;;;8.76;89.41;101552.75;5110130;28;20051;-54
2020/12/20 09:53:59;;;;;;;21.95;3.90;;;;;;;8.75;89.32;101551.06;5113209;28;20036;-58
2020/12/20 09:56:26;;;;;;;20.33;4.25;;;;;;;8.74;89.49;101547.44;5114028;28;20126;-57
2020/12/20 09:58:54;;;;;;;26.40;4.15;;;;;;;8.77;89.11;101549.69;5094460;28;20062;-59
2020/12/20 10:01:22;;;;;;;23.33;4.00;;;;;;;8.79;89.22;101552.19;5094674;28;20478;-53
2020/12/20 10:03:49;;;;;;;22.92;4.78;;;;;;;8.80;89.17;101554.69;5112309;28;20574;-57
2020/12/20 10:06:16;;;;;;;21.80;4.10;;;;;;;8.83;89.06;101556.09;5114949;28;20055;-59
2020/12/20 10:08:44;;;;;;;24.35;3.90;;;;;;;8.88;88.87;101553.34;5097686;28;20056;-59
2020/12/20 10:11:14;;;;;;;23.23;3.75;;;;;;;8.97;88.91;101547.00;5093790;28;20044;-57
2020/12/20 10:13:41;;;;;;;20.92;4.68;;;;;;;9.09;88.74;101545.91;5094227;28;20382;-55
2020/12/20 10:16:08;;;;;;;23.35;4.40;;;;;;;9.20;88.21;101547.63;5093571;28;20080;-57
2020/12/20 10:18:39;;;;;;;27.10;4.10;;;;;;;9.29;87.54;101538.47;5094116;28;20097;-57
2020/12/20 10:21:08;;;;;;;17.75;3.95;;;;;;;9.52;87.58;101536.31;5094304;28;20048;-59
2020/12/20 10:23:35;;;;;;;18.15;4.20;;;;;;;9.66;86.41;101531.84;5093532;28;20240;-58
2020/12/20 10:26:02;;;;;;;23.80;4.20;;;;;;;9.69;86.38;101548.03;5094237;28;20383;-59
2020/12/20 10:28:28;;;;;;;23.85;4.10;;;;;;;9.63;86.17;101538.81;5094083;28;20487;-59
2020/12/20 10:30:55;;;;;;;27.52;4.63;;;;;;;9.62;86.28;101533.50;5093290;28;20040;-60
2020/12/20 10:33:23;;;;;;;21.88;3.88;;;;;;;9.99;86.48;101522.94;5093566;28;20119;-58
2020/12/20 10:35:50;;;;;;;15.60;4.15;;;;;;;10.55;84.77;101522.94;5093904;28;20131;-60
2020/12/20 10:38:17;;;;;;;20.58;4.10;;;;;;;10.70;83.20;101520.09;5093061;28;20042;-61
2020/12/20 10:40:44;;;;;;;21.13;4.43;;;;;;;10.82;82.56;101528.13;5094210;28;20051;-58
2020/12/20 10:43:10;;;;;;;21.25;3.92;;;;;;;10.95;82.10;101524.75;5093534;28;20089;-58
2020/12/20 10:45:37;;;;;;;23.50;4.40;;;;;;;11.15;81.84;101528.56;5093107;28;20047;-59
2020/12/20 10:48:04;;;;;;;23.20;4.40;;;;;;;11.33;80.62;101523.16;5093913;28;20078;-58
2020/12/20 10:50:32;;;;;;;20.27;3.50;;;;;;;11.59;79.87;101528.59;5113301;28;20134;-56
2020/12/20 10:52:59;;;;;;;22.20;4.40;;;;;;;11.86;79.19;101517.78;5113643;28;20063;-61
2020/12/20 10:55:36;;;;;;;22.48;4.20;;;;;;;12.10;78.46;101515.06;5113277;28;20071;-61
2020/12/20 10:58:02;;;;;;;20.27;4.22;;;;;;;12.22;77.26;101528.66;5113949;28;20067;-58
2020/12/20 11:00:29;;;;;;;21.33;3.63;;;;;;;11.96;75.83;101523.31;5113431;28;20122;-59
2020/12/20 11:02:56;;;;;;;20.27;4.55;;;;;;;11.62;77.33;101523.22;5093619;28;20415;-59
2020/12/20 11:05:27;;;;;;;23.80;4.40;;;;;;;11.29;77.58;101518.44;5106962;28;20070;-60
2020/12/20 11:07:56;;;;;;;21.20;4.75;;;;;;;11.04;78.35;101522.19;5114054;28;20446;-59
2020/12/20 11:10:22;;;;;;;18.80;3.90;;;;;;;10.85;78.83;101521.13;5113068;28;20048;-59
2020/12/20 11:12:50;;;;;;;18.98;3.45;;;;;;;10.95;78.99;101521.94;5113113;28;20545;-59
2020/12/20 11:15:16;;;;;;;20.23;3.53;;;;;;;11.73;77.84;101524.84;5112873;28;20123;-59
2020/12/20 11:17:45;;;;;;;20.75;3.80;;;;;;;12.69;75.26;101514.75;5113562;28;20075;-59
2020/12/20 11:20:12;;;;;;;20.98;3.85;;;;;;;13.23;72.30;101523.91;5112253;28;20500;-57
2020/12/20 11:22:39;;;;;;;17.20;3.70;;;;;;;13.77;71.57;101520.59;5113622;28;20051;-56
2020/12/20 11:25:07;;;;;;;19.23;3.55;;;;;;;14.14;70.19;101523.34;5113164;28;20052;-61
2020/12/20 11:27:33;;;;;;;22.60;4.18;;;;;;;14.32;68.49;101537.63;5112745;28;20051;-58
2020/12/20 11:30:00;;;;;;;21.23;4.45;;;;;;;14.38;68.81;101528.81;5112940;28;20139;-60
2020/12/20 11:32:27;;;;;;;22.75;3.83;;;;;;;14.16;69.33;101534.28;5112880;28;20771;-59
2020/12/20 11:34:55;;;;;;;16.45;3.67;;;;;;;13.90;69.24;101538.63;5111918;28;20047;-59
2020/12/20 11:37:22;;;;;;;18.48;4.13;;;;;;;13.93;69.50;101533.25;5112768;28;20054;-59
2020/12/20 11:39:49;;;;;;;17.13;4.15;;;;;;;13.70;69.57;101534.16;5113103;28;20078;-62
2020/12/20 11:42:18;;;;;;;20.00;5.20;;;;;;;13.22;70.44;101534.28;5112277;28;20063;-59